sensor_id;sensor_type;location;lat;lon;timestamp;pressure;altitude;pressure_sealevel;temperature;humidity
18323;BME280;9287;49.456;11.064;2023-03-03T00:01:44;98327.09;;;2.36;100.00
18323;BME280;9287;49.456;11.064;2023-03-03T00:04:12;98324.47;;;2.31;100.00
18323;BME280;9287;49.456;11.064;2023-03-03T00:06:40;98326.66;;;2.29;100.00
18323;BME280;9287;49.456;11.064;2023-03-03T00:09:07;98322.44;;;2.23;100.00
18323;BME280;9287;49.456;11.064;2023-03-03T00:11:35;98323.00;;;2.20;100.00
18323;BME280;9287;49.456;11.064;2023-03-03T00:14:17;98326.06;;;2.32;100.00
18323;BME280;9287;49.456;11.064;2023-03-03T00:16:48;98319.53;;;2.38;100.00
18323;BME280;9287;49.456;11.064;2023-03-03T00:19:17;98320.69;;;2.32;100.00
18323;BME280;9287;49.456;11.064;2023-03-03T00:21:47;98326.66;;;2.29;100.00
18323;BME280;9287;49.456;11.064;2023-03-03T00:24:19;98322.44;;;2.23;100.00
18323;BME280;9287;49.456;11.064;2023-03-03T00:26:48;98328.97;;;2.17;100.00
18323;BME280;9287;49.456;11.064;2023-03-03T00:29:27;98322.97;;;2.01;100.00
18323;BME280;9287;49.456;11.064;2023-03-03T00:32:06;98326.47;;;2.01;100.00
18323;BME280;9287;49.456;11.064;2023-03-03T00:34:39;98325.38;;;2.02;100.00
18323;BME280;9287;49.456;11.064;2023-03-03T00:37:29;98327.19;;;1.88;100.00
18323;BME280;9287;49.456;11.064;2023-03-03T00:40:10;98331.47;;;1.89;100.00
18323;BME280;9287;49.456;11.064;2023-03-03T00:42:40;98332.34;;;1.85;100.00
18323;BME280;9287;49.456;11.064;2023-03-03T00:45:30;98341.31;;;1.75;100.00
18323;BME280;9287;49.456;11.064;2023-03-03T00:48:15;98331.63;;;1.74;100.00
18323;BME280;9287;49.456;11.064;2023-03-03T00:50:45;98334.84;;;1.76;100.00
18323;BME280;9287;49.456;11.064;2023-03-03T00:53:15;98336.28;;;1.68;100.00
18323;BME280;9287;49.456;11.064;2023-03-03T00:55:44;98341.47;;;1.60;100.00
18323;BME280;9287;49.456;11.064;2023-03-03T00:58:12;98336.56;;;1.67;100.00
18323;BME280;9287;49.456;11.064;2023-03-03T01:00:42;98341.44;;;1.65;100.00
18323;BME280;9287;49.456;11.064;2023-03-03T01:03:12;98337.25;;;1.54;100.00
18323;BME280;9287;49.456;11.064;2023-03-03T01:05:40;98333.84;;;1.43;100.00
18323;BME280;9287;49.456;11.064;2023-03-03T01:08:08;98338.94;;;1.45;100.00
18323;BME280;9287;49.456;11.064;2023-03-03T01:10:41;98333.59;;;1.39;100.00
18323;BME280;9287;49.456;11.064;2023-03-03T01:13:10;98333.09;;;1.37;100.00
18323;BME280;9287;49.456;11.064;2023-03-03T01:15:38;98330.72;;;1.31;100.00
18323;BME280;9287;49.456;11.064;2023-03-03T01:18:08;98337.50;;;1.23;100.00
18323;BME280;9287;49.456;11.064;2023-03-03T01:20:37;98333.75;;;1.24;100.00
18323;BME280;9287;49.456;11.064;2023-03-03T01:23:05;98327.91;;;1.17;100.00
18323;BME280;9287;49.456;11.064;2023-03-03T01:25:33;98335.34;;;1.25;100.00
18323;BME280;9287;49.456;11.064;2023-03-03T01:28:00;98332.13;;;1.23;100.00
18323;BME280;9287;49.456;11.064;2023-03-03T01:30:28;98336.13;;;1.31;100.00
18323;BME280;9287;49.456;11.064;2023-03-03T01:32:56;98336.88;;;1.36;100.00
18323;BME280;9287;49.456;11.064;2023-03-03T01:35:25;98337.00;;;1.50;100.00
18323;BME280;9287;49.456;11.064;2023-03-03T01:37:53;98334.03;;;1.52;100.00
18323;BME280;9287;49.456;11.064;2023-03-03T01:40:23;98326.81;;;1.47;100.00
18323;BME280;9287;49.456;11.064;2023-03-03T01:42:51;98323.28;;;1.52;100.00
18323;BME280;9287;49.456;11.064;2023-03-03T01:45:21;98319.50;;;1.53;100.00
18323;BME280;9287;49.456;11.064;2023-03-03T01:47:55;98325.88;;;1.57;100.00
18323;BME280;9287;49.456;11.064;2023-03-03T01:50:37;98321.66;;;1.51;100.00
18323;BME280;9287;49.456;11.064;2023-03-03T01:53:13;98315.25;;;1.47;100.00
18323;BME280;9287;49.456;11.064;2023-03-03T01:55:43;98322.22;;;1.48;100.00
18323;BME280;9287;49.456;11.064;2023-03-03T01:58:20;98321.72;;;1.46;100.00
18323;BME280;9287;49.456;11.064;2023-03-03T02:00:52;98319.56;;;1.43;100.00
18323;BME280;9287;49.456;11.064;2023-03-03T02:03:22;98314.31;;;1.32;100.00
18323;BME280;9287;49.456;11.064;2023-03-03T02:05:54;98314.88;;;1.29;100.00
18323;BME280;9287;49.456;11.064;2023-03-03T02:08:29;98315.16;;;1.28;100.00
18323;BME280;9287;49.456;11.064;2023-03-03T02:11:00;98310.19;;;1.11;100.00
18323;BME280;9287;49.456;11.064;2023-03-03T02:13:28;98316.09;;;1.13;100.00
18323;BME280;9287;49.456;11.064;2023-03-03T02:15:56;98311.22;;;1.20;100.00
18323;BME280;9287;49.456;11.064;2023-03-03T02:18:25;98319.88;;;1.12;100.00
18323;BME280;9287;49.456;11.064;2023-03-03T02:20:57;98316.06;;;1.18;100.00
18323;BME280;9287;49.456;11.064;2023-03-03T02:23:30;98319.88;;;1.12;100.00
18323;BME280;9287;49.456;11.064;2023-03-03T02:26:09;98315.63;;;1.06;100.00
18323;BME280;9287;49.456;11.064;2023-03-03T02:28:38;98318.81;;;1.08;100.00
18323;BME280;9287;49.456;11.064;2023-03-03T02:31:08;98321.09;;;0.96;100.00
18323;BME280;9287;49.456;11.064;2023-03-03T02:33:39;98320.03;;;0.92;100.00
18323;BME280;9287;49.456;11.064;2023-03-03T02:36:11;98328.38;;;0.90;100.00
18323;BME280;9287;49.456;11.064;2023-03-03T02:38:44;98319.56;;;0.85;100.00
18323;BME280;9287;49.456;11.064;2023-03-03T02:41:25;98322.28;;;0.80;100.00
18323;BME280;9287;49.456;11.064;2023-03-03T02:43:58;98315.06;;;0.75;100.00
18323;BME280;9287;49.456;11.064;2023-03-03T02:46:26;98312.75;;;0.63;100.00
18323;BME280;9287;49.456;11.064;2023-03-03T02:48:54;98320.28;;;0.61;100.00
18323;BME280;9287;49.456;11.064;2023-03-03T02:51:22;98322.44;;;0.59;100.00
18323;BME280;9287;49.456;11.064;2023-03-03T02:53:50;98320.81;;;0.58;100.00
18323;BME280;9287;49.456;11.064;2023-03-03T02:56:19;98326.53;;;0.52;100.00
18323;BME280;9287;49.456;11.064;2023-03-03T02:58:46;98316.63;;;0.47;100.00
18323;BME280;9287;49.456;11.064;2023-03-03T03:01:14;98328.44;;;0.46;100.00
18323;BME280;9287;49.456;11.064;2023-03-03T03:03:42;98326.28;;;0.48;100.00
18323;BME280;9287;49.456;11.064;2023-03-03T03:06:10;98322.50;;;0.49;100.00
18323;BME280;9287;49.456;11.064;2023-03-03T03:08:38;98322.25;;;0.46;100.00
18323;BME280;9287;49.456;11.064;2023-03-03T03:11:07;98324.69;;;0.42;100.00
18323;BME280;9287;49.456;11.064;2023-03-03T03:13:36;98322.00;;;0.42;100.00
18323;BME280;9287;49.456;11.064;2023-03-03T03:16:04;98331.69;;;0.38;100.00
18323;BME280;9287;49.456;11.064;2023-03-03T03:18:32;98316.91;;;0.41;100.00
18323;BME280;9287;49.456;11.064;2023-03-03T03:21:05;98318.53;;;0.37;100.00
18323;BME280;9287;49.456;11.064;2023-03-03T03:23:34;98324.72;;;0.37;100.00
18323;BME280;9287;49.456;11.064;2023-03-03T03:26:02;98328.22;;;0.38;100.00
18323;BME280;9287;49.456;11.064;2023-03-03T03:28:30;98323.69;;;0.33;100.00
18323;BME280;9287;49.456;11.064;2023-03-03T03:31:00;98332.81;;;0.32;100.00
18323;BME280;9287;49.456;11.064;2023-03-03T03:33:28;98332.25;;;0.35;100.00
18323;BME280;9287;49.456;11.064;2023-03-03T03:35:57;98334.69;;;0.31;100.00
18323;BME280;9287;49.456;11.064;2023-03-03T03:38:26;98332.25;;;0.35;100.00
18323;BME280;9287;49.456;11.064;2023-03-03T03:40:55;98334.69;;;0.31;100.00
18323;BME280;9287;49.456;11.064;2023-03-03T03:43:23;98329.88;;;0.28;100.00
18323;BME280;9287;49.456;11.064;2023-03-03T03:45:51;98326.66;;;0.31;100.00
18323;BME280;9287;49.456;11.064;2023-03-03T03:48:20;98329.59;;;0.30;100.00
18323;BME280;9287;49.456;11.064;2023-03-03T03:50:49;98340.91;;;0.27;100.00
18323;BME280;9287;49.456;11.064;2023-03-03T03:53:17;98334.19;;;0.24;100.00
18323;BME280;9287;49.456;11.064;2023-03-03T03:55:46;98339.28;;;0.26;100.00
18323;BME280;9287;49.456;11.064;2023-03-03T03:58:14;98335.50;;;0.32;100.00
18323;BME280;9287;49.456;11.064;2023-03-03T04:00:44;98347.88;;;0.28;100.00
18323;BME280;9287;49.456;11.064;2023-03-03T04:03:13;98338.75;;;0.24;100.00
18323;BME280;9287;49.456;11.064;2023-03-03T04:05:42;98342.25;;;0.24;100.00
18323;BME280;9287;49.456;11.064;2023-03-03T04:08:10;98339.84;;;0.18;100.00
18323;BME280;9287;49.456;11.064;2023-03-03T04:10:38;98338.50;;;0.20;100.00
18323;BME280;9287;49.456;11.064;2023-03-03T04:13:06;98335.53;;;0.27;100.00
18323;BME280;9287;49.456;11.064;2023-03-03T04:15:33;98337.63;;;0.35;100.00
18323;BME280;9287;49.456;11.064;2023-03-03T04:18:02;98332.53;;;0.33;100.00
18323;BME280;9287;49.456;11.064;2023-03-03T04:20:30;98337.13;;;0.28;100.00
18323;BME280;9287;49.456;11.064;2023-03-03T04:22:59;98343.34;;;0.18;100.00
18323;BME280;9287;49.456;11.064;2023-03-03T04:25:27;98347.91;;;0.18;100.00
18323;BME280;9287;49.456;11.064;2023-03-03T04:27:54;98341.25;;;0.10;100.00
18323;BME280;9287;49.456;11.064;2023-03-03T04:30:22;98348.56;;;-0.01;100.00
18323;BME280;9287;49.456;11.064;2023-03-03T04:32:50;98351.25;;;-0.06;100.00
18323;BME280;9287;49.456;11.064;2023-03-03T04:35:18;98349.63;;;-0.07;100.00
18323;BME280;9287;49.456;11.064;2023-03-03T04:37:46;98349.38;;;-0.05;100.00
18323;BME280;9287;49.456;11.064;2023-03-03T04:40:15;98352.31;;;-0.07;100.00
18323;BME280;9287;49.456;11.064;2023-03-03T04:42:43;98347.50;;;-0.05;100.00
18323;BME280;9287;49.456;11.064;2023-03-03T04:45:11;98345.34;;;-0.08;100.00
18323;BME280;9287;49.456;11.064;2023-03-03T04:47:39;98352.88;;;-0.10;100.00
18323;BME280;9287;49.456;11.064;2023-03-03T04:50:08;98349.09;;;-0.09;100.00
18323;BME280;9287;49.456;11.064;2023-03-03T04:52:36;98355.31;;;-0.18;100.00
18323;BME280;9287;49.456;11.064;2023-03-03T04:55:06;98354.47;;;-0.09;100.00
18323;BME280;9287;49.456;11.064;2023-03-03T04:57:37;98347.75;;;-0.01;100.00
18323;BME280;9287;49.456;11.064;2023-03-03T05:00:06;98349.09;;;-0.04;100.00
18323;BME280;9287;49.456;11.064;2023-03-03T05:02:34;98352.88;;;-0.10;100.00
18323;BME280;9287;49.456;11.064;2023-03-03T05:05:01;98357.97;;;-0.13;100.00
18323;BME280;9287;49.456;11.064;2023-03-03T05:07:29;98363.06;;;-0.17;100.00
18323;BME280;9287;49.456;11.064;2023-03-03T05:09:57;98361.50;;;-0.18;100.00
18323;BME280;9287;49.456;11.064;2023-03-03T05:12:25;98361.78;;;-0.24;100.00
18323;BME280;9287;49.456;11.064;2023-03-03T05:14:54;98356.69;;;-0.26;100.00
18323;BME280;9287;49.456;11.064;2023-03-03T05:17:22;98363.13;;;-0.22;100.00
18323;BME280;9287;49.456;11.064;2023-03-03T05:19:50;98374.13;;;-0.23;100.00
18323;BME280;9287;49.456;11.064;2023-03-03T05:22:17;98369.03;;;-0.20;100.00
18323;BME280;9287;49.456;11.064;2023-03-03T05:24:45;98370.09;;;-0.26;100.00
18323;BME280;9287;49.456;11.064;2023-03-03T05:27:14;98374.41;;;-0.30;100.00
18323;BME280;9287;49.456;11.064;2023-03-03T05:29:42;98368.78;;;-0.39;100.00
18323;BME280;9287;49.456;11.064;2023-03-03T05:32:11;98378.44;;;-0.38;100.00
18323;BME280;9287;49.456;11.064;2023-03-03T05:34:39;98365.84;;;-0.42;100.00
18323;BME280;9287;49.456;11.064;2023-03-03T05:37:07;98374.97;;;-0.43;100.00
18323;BME280;9287;49.456;11.064;2023-03-03T05:39:35;98375.50;;;-0.36;100.00
18323;BME280;9287;49.456;11.064;2023-03-03T05:42:03;98374.44;;;-0.40;100.00
18323;BME280;9287;49.456;11.064;2023-03-03T05:44:30;98377.66;;;-0.43;100.00
18323;BME280;9287;49.456;11.064;2023-03-03T05:46:58;98377.66;;;-0.38;100.00
18323;BME280;9287;49.456;11.064;2023-03-03T05:49:27;98377.66;;;-0.38;100.00
18323;BME280;9287;49.456;11.064;2023-03-03T05:51:55;98390.00;;;-0.37;100.00
18323;BME280;9287;49.456;11.064;2023-03-03T05:54:24;98381.41;;;-0.39;100.00
18323;BME280;9287;49.456;11.064;2023-03-03T05:56:52;98390.00;;;-0.37;100.00
18323;BME280;9287;49.456;11.064;2023-03-03T05:59:20;98389.97;;;-0.32;100.00
18323;BME280;9287;49.456;11.064;2023-03-03T06:01:47;98393.72;;;-0.28;100.00
18323;BME280;9287;49.456;11.064;2023-03-03T06:04:15;98394.78;;;-0.34;100.00
18323;BME280;9287;49.456;11.064;2023-03-03T06:06:44;98400.72;;;-0.37;100.00
18323;BME280;9287;49.456;11.064;2023-03-03T06:09:12;98409.31;;;-0.35;100.00
18323;BME280;9287;49.456;11.064;2023-03-03T06:11:41;98406.06;;;-0.27;100.00
18323;BME280;9287;49.456;11.064;2023-03-03T06:14:09;98412.50;;;-0.23;100.00
18323;BME280;9287;49.456;11.064;2023-03-03T06:16:37;98416.25;;;-0.24;100.00
18323;BME280;9287;49.456;11.064;2023-03-03T06:19:05;98419.47;;;-0.32;100.00
18323;BME280;9287;49.456;11.064;2023-03-03T06:21:33;98410.59;;;-0.17;100.00
18323;BME280;9287;49.456;11.064;2023-03-03T06:24:02;98406.56;;;-0.10;100.00
18323;BME280;9287;49.456;11.064;2023-03-03T06:26:31;98416.22;;;-0.14;100.00
18323;BME280;9287;49.456;11.064;2023-03-03T06:28:59;98425.34;;;-0.05;100.00
18323;BME280;9287;49.456;11.064;2023-03-03T06:31:27;98435.78;;;0.02;100.00
18323;BME280;9287;49.456;11.064;2023-03-03T06:33:55;98437.91;;;0.10;100.00
18323;BME280;9287;49.456;11.064;2023-03-03T06:36:23;98437.09;;;0.15;100.00
18323;BME280;9287;49.456;11.064;2023-03-03T06:38:51;98448.34;;;0.22;100.00
18323;BME280;9287;49.456;11.064;2023-03-03T06:41:20;98444.03;;;0.31;100.00
18323;BME280;9287;49.456;11.064;2023-03-03T06:43:47;98450.69;;;0.39;100.00
18323;BME280;9287;49.456;11.064;2023-03-03T06:46:15;98450.41;;;0.50;100.00
18323;BME280;9287;49.456;11.064;2023-03-03T06:48:43;98457.88;;;0.53;100.00
18323;BME280;9287;49.456;11.064;2023-03-03T06:51:21;98447.66;;;0.60;100.00
18323;BME280;9287;49.456;11.064;2023-03-03T06:53:51;98447.06;;;0.74;100.00
18323;BME280;9287;49.456;11.064;2023-03-03T06:56:22;98457.19;;;0.87;100.00
18323;BME280;9287;49.456;11.064;2023-03-03T06:58:53;98457.94;;;0.97;100.00
18323;BME280;9287;49.456;11.064;2023-03-03T07:01:20;98453.31;;;1.08;100.00
18323;BME280;9287;49.456;11.064;2023-03-03T07:03:49;98450.56;;;1.18;100.00
18323;BME280;9287;49.456;11.064;2023-03-03T07:06:20;98447.78;;;1.28;100.00
18323;BME280;9287;49.456;11.064;2023-03-03T07:08:50;98451.56;;;1.27;100.00
18323;BME280;9287;49.456;11.064;2023-03-03T07:11:20;98462.34;;;1.22;100.00
18323;BME280;9287;49.456;11.064;2023-03-03T07:13:51;98457.44;;;1.34;100.00
18323;BME280;9287;49.456;11.064;2023-03-03T07:16:23;98465.38;;;1.50;100.00
18323;BME280;9287;49.456;11.064;2023-03-03T07:18:52;98474.44;;;1.59;100.00
18323;BME280;9287;49.456;11.064;2023-03-03T07:21:21;98483.06;;;1.61;100.00
18323;BME280;9287;49.456;11.064;2023-03-03T07:23:51;98488.69;;;1.64;100.00
18323;BME280;9287;49.456;11.064;2023-03-03T07:26:20;98478.22;;;1.58;100.00
18323;BME280;9287;49.456;11.064;2023-03-03T07:28:54;98474.13;;;1.65;100.00
18323;BME280;9287;49.456;11.064;2023-03-03T07:31:29;98481.91;;;1.72;100.00
18323;BME280;9287;49.456;11.064;2023-03-03T07:33:58;98487.78;;;1.74;100.00
18323;BME280;9287;49.456;11.064;2023-03-03T07:36:28;98484.59;;;1.72;100.00
18323;BME280;9287;49.456;11.064;2023-03-03T07:38:58;98489.88;;;1.48;100.00
18323;BME280;9287;49.456;11.064;2023-03-03T07:41:29;98494.47;;;1.48;100.00
18323;BME280;9287;49.456;11.064;2023-03-03T07:44:04;98498.47;;;1.84;100.00
18323;BME280;9287;49.456;11.064;2023-03-03T07:46:36;98500.09;;;1.85;100.00
18323;BME280;9287;49.456;11.064;2023-03-03T07:49:20;98498.47;;;1.84;100.00
18323;BME280;9287;49.456;11.064;2023-03-03T07:51:52;98502.50;;;2.16;100.00
18323;BME280;9287;49.456;11.064;2023-03-03T07:54:32;98504.97;;;2.36;100.00
18323;BME280;9287;49.456;11.064;2023-03-03T07:57:11;98506.69;;;2.74;100.00
18323;BME280;9287;49.456;11.064;2023-03-03T07:59:45;98498.41;;;2.90;98.14
18323;BME280;9287;49.456;11.064;2023-03-03T08:02:32;98518.13;;;3.46;95.36
18323;BME280;9287;49.456;11.064;2023-03-03T08:05:11;98522.88;;;3.87;90.04
18323;BME280;9287;49.456;11.064;2023-03-03T08:07:48;98516.50;;;4.70;84.87
18323;BME280;9287;49.456;11.064;2023-03-03T08:10:30;98510.47;;;6.40;70.04
18323;BME280;9287;49.456;11.064;2023-03-03T08:13:08;98510.22;;;8.74;59.60
18323;BME280;9287;49.456;11.064;2023-03-03T08:15:44;98513.81;;;9.66;53.01
18323;BME280;9287;49.456;11.064;2023-03-03T08:18:21;98508.69;;;10.64;49.27
18323;BME280;9287;49.456;11.064;2023-03-03T08:20:51;98518.41;;;12.02;46.13
18323;BME280;9287;49.456;11.064;2023-03-03T08:23:20;98520.38;;;12.45;43.44
18323;BME280;9287;49.456;11.064;2023-03-03T08:25:49;98514.03;;;11.85;45.17
18323;BME280;9287;49.456;11.064;2023-03-03T08:28:17;98518.16;;;11.79;44.23
18323;BME280;9287;49.456;11.064;2023-03-03T08:30:47;98514.25;;;11.93;44.37
18323;BME280;9287;49.456;11.064;2023-03-03T08:33:16;98516.06;;;10.18;47.86
18323;BME280;9287;49.456;11.064;2023-03-03T08:35:44;98518.56;;;9.90;48.31
18323;BME280;9287;49.456;11.064;2023-03-03T08:38:14;98523.09;;;9.24;50.32
18323;BME280;9287;49.456;11.064;2023-03-03T08:40:42;98529.84;;;9.47;50.28
18323;BME280;9287;49.456;11.064;2023-03-03T08:43:11;98533.13;;;9.53;50.78
18323;BME280;9287;49.456;11.064;2023-03-03T08:45:43;98526.72;;;8.05;53.90
18323;BME280;9287;49.456;11.064;2023-03-03T08:48:13;98521.22;;;9.16;52.03
18323;BME280;9287;49.456;11.064;2023-03-03T08:50:42;98523.16;;;8.39;53.37
18323;BME280;9287;49.456;11.064;2023-03-03T08:53:11;98524.38;;;8.59;53.46
18323;BME280;9287;49.456;11.064;2023-03-03T08:55:39;98528.38;;;8.99;52.65
18323;BME280;9287;49.456;11.064;2023-03-03T08:58:07;98535.97;;;8.21;53.43
18323;BME280;9287;49.456;11.064;2023-03-03T09:00:35;98517.72;;;8.30;54.13
18323;BME280;9287;49.456;11.064;2023-03-03T09:03:04;98502.75;;;9.42;51.20
18323;BME280;9287;49.456;11.064;2023-03-03T09:05:35;98508.94;;;10.05;49.76
18323;BME280;9287;49.456;11.064;2023-03-03T09:08:04;98514.72;;;9.70;47.52
18323;BME280;9287;49.456;11.064;2023-03-03T09:10:32;98518.09;;;7.86;51.69
18323;BME280;9287;49.456;11.064;2023-03-03T09:13:06;98511.63;;;8.16;51.72
18323;BME280;9287;49.456;11.064;2023-03-03T09:15:36;98506.88;;;8.13;51.70
18323;BME280;9287;49.456;11.064;2023-03-03T09:18:14;98513.19;;;8.52;51.62
18323;BME280;9287;49.456;11.064;2023-03-03T09:20:44;98509.53;;;9.15;49.82
18323;BME280;9287;49.456;11.064;2023-03-03T09:23:32;98512.88;;;9.62;48.54
18323;BME280;9287;49.456;11.064;2023-03-03T09:26:24;98510.44;;;8.98;49.77
18323;BME280;9287;49.456;11.064;2023-03-03T09:28:55;98512.28;;;9.57;48.67
18323;BME280;9287;49.456;11.064;2023-03-03T09:31:27;98522.34;;;8.47;49.76
18323;BME280;9287;49.456;11.064;2023-03-03T09:33:56;98518.19;;;9.80;48.44
18323;BME280;9287;49.456;11.064;2023-03-03T09:36:28;98512.00;;;10.24;47.75
18323;BME280;9287;49.456;11.064;2023-03-03T09:38:57;98522.06;;;9.07;50.31
18323;BME280;9287;49.456;11.064;2023-03-03T09:41:45;98518.81;;;10.18;47.62
18323;BME280;9287;49.456;11.064;2023-03-03T09:44:34;98514.09;;;10.39;47.70
18323;BME280;9287;49.456;11.064;2023-03-03T09:47:22;98521.00;;;12.11;43.67
18323;BME280;9287;49.456;11.064;2023-03-03T09:50:06;98526.50;;;12.11;43.37
18323;BME280;9287;49.456;11.064;2023-03-03T09:52:46;98526.88;;;13.16;41.95
18323;BME280;9287;49.456;11.064;2023-03-03T09:55:28;98521.34;;;13.32;39.79
18323;BME280;9287;49.456;11.064;2023-03-03T09:58:21;98525.38;;;14.73;38.91
18323;BME280;9287;49.456;11.064;2023-03-03T10:00:56;98522.09;;;14.63;38.44
18323;BME280;9287;49.456;11.064;2023-03-03T10:03:47;98529.22;;;14.26;38.98
18323;BME280;9287;49.456;11.064;2023-03-03T10:06:24;98541.72;;;14.23;39.36
18323;BME280;9287;49.456;11.064;2023-03-03T10:09:09;98538.59;;;13.16;41.10
18323;BME280;9287;49.456;11.064;2023-03-03T10:11:49;98533.53;;;13.69;40.47
18323;BME280;9287;49.456;11.064;2023-03-03T10:14:37;98521.75;;;14.46;38.97
18323;BME280;9287;49.456;11.064;2023-03-03T10:17:21;98528.19;;;14.34;38.30
18323;BME280;9287;49.456;11.064;2023-03-03T10:20:03;98529.44;;;14.17;39.11
18323;BME280;9287;49.456;11.064;2023-03-03T10:22:38;98532.13;;;14.14;39.18
18323;BME280;9287;49.456;11.064;2023-03-03T10:25:21;98525.34;;;13.18;39.79
18323;BME280;9287;49.456;11.064;2023-03-03T10:28:02;98528.44;;;13.52;40.17
18323;BME280;9287;49.456;11.064;2023-03-03T10:30:39;98523.38;;;13.03;40.95
18323;BME280;9287;49.456;11.064;2023-03-03T10:33:34;98520.25;;;14.48;38.70
18323;BME280;9287;49.456;11.064;2023-03-03T10:36:18;98516.41;;;14.53;38.63
18323;BME280;9287;49.456;11.064;2023-03-03T10:38:55;98513.22;;;14.74;38.91
18323;BME280;9287;49.456;11.064;2023-03-03T10:41:39;98518.09;;;15.56;37.20
18323;BME280;9287;49.456;11.064;2023-03-03T10:44:26;98519.75;;;15.38;37.28
18323;BME280;9287;49.456;11.064;2023-03-03T10:47:13;98518.41;;;15.28;37.56
18323;BME280;9287;49.456;11.064;2023-03-03T10:49:55;98517.88;;;16.01;36.46
18323;BME280;9287;49.456;11.064;2023-03-03T10:52:32;98521.19;;;15.54;37.04
18323;BME280;9287;49.456;11.064;2023-03-03T10:55:20;98527.22;;;14.88;38.04
18323;BME280;9287;49.456;11.064;2023-03-03T10:58:02;98522.59;;;15.45;37.46
18323;BME280;9287;49.456;11.064;2023-03-03T11:00:41;98515.59;;;14.98;37.92
18323;BME280;9287;49.456;11.064;2023-03-03T11:06:21;98512.19;;;13.98;39.54
18323;BME280;9287;49.456;11.064;2023-03-03T11:08:54;98516.34;;;13.72;40.04
18323;BME280;9287;49.456;11.064;2023-03-03T11:11:29;98511.47;;;13.81;40.31
18323;BME280;9287;49.456;11.064;2023-03-03T11:14:05;98514.47;;;13.57;41.04
18323;BME280;9287;49.456;11.064;2023-03-03T11:16:46;98517.38;;;13.13;41.95
18323;BME280;9287;49.456;11.064;2023-03-03T11:19:29;98513.97;;;13.36;41.79
18323;BME280;9287;49.456;11.064;2023-03-03T11:22:13;98507.53;;;13.63;41.55
18323;BME280;9287;49.456;11.064;2023-03-03T11:24:55;98495.72;;;13.98;40.72
18323;BME280;9287;49.456;11.064;2023-03-03T11:27:52;98499.81;;;13.69;40.80
18323;BME280;9287;49.456;11.064;2023-03-03T11:30:34;98501.41;;;13.50;40.97
18323;BME280;9287;49.456;11.064;2023-03-03T11:33:09;98506.59;;;13.20;41.67
18323;BME280;9287;49.456;11.064;2023-03-03T11:35:43;98501.59;;;13.42;41.45
18323;BME280;9287;49.456;11.064;2023-03-03T11:38:23;98494.81;;;13.55;41.47
18323;BME280;9287;49.456;11.064;2023-03-03T11:40:56;98494.78;;;13.36;42.22
18323;BME280;9287;49.456;11.064;2023-03-03T11:43:29;98490.44;;;13.50;42.04
18323;BME280;9287;49.456;11.064;2023-03-03T11:46:06;98499.59;;;13.58;41.40
18323;BME280;9287;49.456;11.064;2023-03-03T11:48:43;98494.28;;;14.46;40.25
18323;BME280;9287;49.456;11.064;2023-03-03T11:51:18;98482.59;;;14.72;39.72
18323;BME280;9287;49.456;11.064;2023-03-03T11:53:57;98478.59;;;14.27;39.63
18323;BME280;9287;49.456;11.064;2023-03-03T11:56:27;98475.25;;;15.32;38.28
18323;BME280;9287;49.456;11.064;2023-03-03T11:59:11;98475.13;;;15.81;37.27
18323;BME280;9287;49.456;11.064;2023-03-03T12:01:48;98471.34;;;16.67;36.16
18323;BME280;9287;49.456;11.064;2023-03-03T12:04:21;98485.50;;;16.65;36.28
18323;BME280;9287;49.456;11.064;2023-03-03T12:07:08;98467.31;;;16.57;35.56
18323;BME280;9287;49.456;11.064;2023-03-03T12:09:58;98467.34;;;16.61;35.91
18323;BME280;9287;49.456;11.064;2023-03-03T12:12:33;98467.09;;;16.77;35.43
18323;BME280;9287;49.456;11.064;2023-03-03T12:15:09;98462.81;;;16.83;35.58
18323;BME280;9287;49.456;11.064;2023-03-03T12:17:56;98458.34;;;17.19;34.87
18323;BME280;9287;49.456;11.064;2023-03-03T12:20:32;98463.56;;;16.80;35.52
18323;BME280;9287;49.456;11.064;2023-03-03T12:23:17;98464.03;;;16.48;35.39
18323;BME280;9287;49.456;11.064;2023-03-03T12:25:58;98451.84;;;16.90;35.49
18323;BME280;9287;49.456;11.064;2023-03-03T12:28:31;98447.91;;;16.91;35.04
18323;BME280;9287;49.456;11.064;2023-03-03T12:31:26;98438.84;;;17.56;33.88
18323;BME280;9287;49.456;11.064;2023-03-03T12:34:03;98436.97;;;17.05;34.36
18323;BME280;9287;49.456;11.064;2023-03-03T12:36:54;98430.06;;;17.39;34.48
18323;BME280;9287;49.456;11.064;2023-03-03T12:39:37;98433.69;;;16.89;34.49
18323;BME280;9287;49.456;11.064;2023-03-03T12:42:14;98431.09;;;16.59;35.31
18323;BME280;9287;49.456;11.064;2023-03-03T12:44:49;98427.53;;;17.06;34.77
18323;BME280;9287;49.456;11.064;2023-03-03T12:47:26;98423.19;;;17.78;33.65
18323;BME280;9287;49.456;11.064;2023-03-03T12:50:12;98421.25;;;17.16;34.32
18323;BME280;9287;49.456;11.064;2023-03-03T12:52:51;98423.31;;;17.26;33.83
18323;BME280;9287;49.456;11.064;2023-03-03T12:55:31;98422.06;;;17.20;33.92
18323;BME280;9287;49.456;11.064;2023-03-03T12:58:11;98410.88;;;16.92;34.21
18323;BME280;9287;49.456;11.064;2023-03-03T13:00:50;98423.78;;;16.81;34.48
18323;BME280;9287;49.456;11.064;2023-03-03T13:03:31;98417.34;;;16.22;35.08
18323;BME280;9287;49.456;11.064;2023-03-03T13:06:26;98418.56;;;15.87;35.46
18323;BME280;9287;49.456;11.064;2023-03-03T13:09:02;98423.09;;;15.43;36.26
18323;BME280;9287;49.456;11.064;2023-03-03T13:11:51;98420.91;;;15.25;36.74
18323;BME280;9287;49.456;11.064;2023-03-03T13:14:28;98411.94;;;14.49;37.95
18323;BME280;9287;49.456;11.064;2023-03-03T13:17:04;98406.81;;;14.28;38.17
18323;BME280;9287;49.456;11.064;2023-03-03T13:19:38;98407.59;;;13.83;38.69
18323;BME280;9287;49.456;11.064;2023-03-03T13:22:13;98408.09;;;13.70;39.11
18323;BME280;9287;49.456;11.064;2023-03-03T13:24:52;98404.44;;;13.43;39.18
18323;BME280;9287;49.456;11.064;2023-03-03T13:27:24;98408.03;;;13.66;38.31
18323;BME280;9287;49.456;11.064;2023-03-03T13:29:58;98409.41;;;13.56;38.60
18323;BME280;9287;49.456;11.064;2023-03-03T13:32:33;98406.28;;;13.77;38.46
18323;BME280;9287;49.456;11.064;2023-03-03T13:35:18;98402.81;;;13.22;39.00